Time;durP1;ratioP1;P1;durP2;ratioP2;P2;SDS_P1;SDS_P2;PMS_P1;PMS_P2;Temp;Humidity;BMP_temperature;BMP_pressure;BME280_temperature;BME280_humidity;BME280_pressure;Samples;Min_cycle;Max_cycle;Signal;HPM_P1;HPM_P2
2024/02/04 00:01:33;;;;;;;1.97;1.83;;;;;;;;;;5012854;28;20218;-80
2024/02/04 00:04:00;;;;;;;2.43;2.23;;;;;;;;;;5028115;28;20244;-79
2024/02/04 00:06:27;;;;;;;2.00;1.90;;;;;;;;;;5028621;28;20201;-80
2024/02/04 00:08:56;;;;;;;2.00;1.77;;;;;;;;;;5045899;28;20255;-80
2024/02/04 00:11:26;;;;;;;2.30;1.90;;;;;;;;;;5040668;28;20232;-79
2024/02/04 00:13:53;;;;;;;1.93;1.83;;;;;;;;;;5025518;28;20205;-79
2024/02/04 00:16:19;;;;;;;2.00;1.90;;;;;;;;;;5020880;28;20700;-79
2024/02/04 00:18:46;;;;;;;2.53;2.10;;;;;;;;;;5028924;28;20415;-79
2024/02/04 00:21:13;;;;;;;2.07;1.97;;;;;;;;;;5032018;28;20267;-79
2024/02/04 00:23:41;;;;;;;2.00;1.90;;;;;;;;;;5011931;28;20248;-80
2024/02/04 00:26:17;;;;;;;2.30;2.10;;;;;;;;;;5039411;28;20224;-79
2024/02/04 00:28:45;;;;;;;2.00;1.90;;;;;;;;;;5020642;28;20194;-79
2024/02/04 00:31:15;;;;;;;2.37;1.87;;;;;;;;;;5036006;28;20654;-80
2024/02/04 00:33:42;;;;;;;2.30;2.10;;;;;;;;;;5019758;28;20210;-81
2024/02/04 00:36:13;;;;;;;1.67;1.57;;;;;;;;;;5028515;28;20270;-80
2024/02/04 00:38:43;;;;;;;1.90;1.60;;;;;;;;;;5009641;28;20226;-80
2024/02/04 00:41:10;;;;;;;2.40;1.87;;;;;;;;;;5030738;28;20221;-81
2024/02/04 00:43:40;;;;;;;2.17;1.60;;;;;;;;;;5017415;28;20212;-80
2024/02/04 00:46:07;;;;;;;1.60;1.50;;;;;;;;;;5030176;28;20198;-79
2024/02/04 00:48:41;;;;;;;1.37;1.27;;;;;;;;;;5001295;28;20205;-80
2024/02/04 00:51:09;;;;;;;1.40;1.30;;;;;;;;;;5017077;28;20210;-79
2024/02/04 00:53:41;;;;;;;1.37;1.27;;;;;;;;;;5034254;28;20269;-79
2024/02/04 00:56:11;;;;;;;1.30;1.20;;;;;;;;;;5043304;28;20237;-79
2024/02/04 00:58:39;;;;;;;1.50;1.30;;;;;;;;;;5020650;28;20309;-79
2024/02/04 01:01:06;;;;;;;1.37;1.27;;;;;;;;;;5056375;28;20221;-79
2024/02/04 01:03:36;;;;;;;1.23;1.13;;;;;;;;;;5058898;28;20717;-79
2024/02/04 01:06:03;;;;;;;1.10;1.00;;;;;;;;;;5040577;28;20251;-79
2024/02/04 01:08:30;;;;;;;1.10;1.00;;;;;;;;;;5040664;28;20194;-79
2024/02/04 01:10:59;;;;;;;0.83;0.83;;;;;;;;;;5045521;28;20197;-79
2024/02/04 01:13:27;;;;;;;1.17;1.07;;;;;;;;;;5045223;28;20201;-79
2024/02/04 01:15:54;;;;;;;1.30;1.20;;;;;;;;;;5056095;28;20208;-80
2024/02/04 01:18:21;;;;;;;1.40;1.30;;;;;;;;;;5046422;28;20193;-79
2024/02/04 01:20:48;;;;;;;1.20;1.10;;;;;;;;;;5063840;28;20205;-80
2024/02/04 01:23:18;;;;;;;1.20;1.10;;;;;;;;;;5051662;28;20668;-79
2024/02/04 01:25:54;;;;;;;1.30;1.20;;;;;;;;;;5029991;28;20208;-80
2024/02/04 01:28:20;;;;;;;1.20;1.00;;;;;;;;;;5053934;28;20204;-80
2024/02/04 01:30:48;;;;;;;1.17;1.10;;;;;;;;;;5023952;28;20201;-79
2024/02/04 01:33:17;;;;;;;1.00;1.00;;;;;;;;;;5039727;28;20193;-80
2024/02/04 01:35:45;;;;;;;1.10;0.90;;;;;;;;;;5061308;28;20235;-78
2024/02/04 01:38:11;;;;;;;0.80;0.80;;;;;;;;;;5036535;28;20284;-81
2024/02/04 01:40:40;;;;;;;1.17;0.90;;;;;;;;;;5019261;28;20221;-80
2024/02/04 01:43:10;;;;;;;0.73;0.73;;;;;;;;;;5038348;28;20198;-79
2024/02/04 01:45:36;;;;;;;1.00;0.80;;;;;;;;;;5021638;28;20223;-79
2024/02/04 01:48:06;;;;;;;0.97;0.80;;;;;;;;;;5055895;28;20401;-79
2024/02/04 01:50:37;;;;;;;1.07;0.67;;;;;;;;;;5035550;28;20736;-78
2024/02/04 01:53:20;;;;;;;0.70;0.70;;;;;;;;;;5041661;28;20205;-79
2024/02/04 01:55:49;;;;;;;0.60;0.60;;;;;;;;;;5032701;28;20332;-80
2024/02/04 01:58:18;;;;;;;1.03;0.50;;;;;;;;;;5031610;28;20225;-81
2024/02/04 02:00:48;;;;;;;0.57;0.57;;;;;;;;;;5034876;28;20217;-79
2024/02/04 02:03:21;;;;;;;0.60;0.60;;;;;;;;;;5037708;28;20197;-78
2024/02/04 02:05:48;;;;;;;0.60;0.60;;;;;;;;;;5053961;28;20739;-80
2024/02/04 02:08:16;;;;;;;1.03;0.70;;;;;;;;;;5034673;28;20266;-80
2024/02/04 02:10:46;;;;;;;0.70;0.70;;;;;;;;;;5034989;28;20206;-79
2024/02/04 02:13:16;;;;;;;0.63;0.63;;;;;;;;;;5031776;28;20201;-82
2024/02/04 02:15:51;;;;;;;0.80;0.80;;;;;;;;;;5035006;28;20206;-81
2024/02/04 02:18:23;;;;;;;0.70;0.70;;;;;;;;;;5034468;28;20206;-79
2024/02/04 02:21:09;;;;;;;0.90;0.90;;;;;;;;;;5031207;28;20224;-81
2024/02/04 02:23:43;;;;;;;0.70;0.70;;;;;;;;;;5051152;28;20205;-78
2024/02/04 02:26:17;;;;;;;0.70;0.70;;;;;;;;;;5052828;28;20292;-79
2024/02/04 02:28:49;;;;;;;0.83;0.83;;;;;;;;;;5052736;28;20199;-82
2024/02/04 02:31:18;;;;;;;1.00;0.80;;;;;;;;;;5034720;28;20441;-79
2024/02/04 02:34:05;;;;;;;0.67;0.67;;;;;;;;;;5034685;28;20216;-79
2024/02/04 02:36:45;;;;;;;0.70;0.70;;;;;;;;;;5053970;28;20350;-78
2024/02/04 02:39:21;;;;;;;1.20;1.10;;;;;;;;;;5031165;28;20191;-80
2024/02/04 02:41:49;;;;;;;0.80;0.80;;;;;;;;;;5050830;28;20228;-80
2024/02/04 02:44:17;;;;;;;1.87;1.00;;;;;;;;;;5052857;28;20194;-80
2024/02/04 02:46:46;;;;;;;0.70;0.70;;;;;;;;;;5034778;28;20218;-80
2024/02/04 02:49:13;;;;;;;0.90;0.90;;;;;;;;;;5034031;28;20193;-79
2024/02/04 02:52:04;;;;;;;0.80;0.77;;;;;;;;;;5057803;28;20196;-80
2024/02/04 02:54:30;;;;;;;0.70;0.70;;;;;;;;;;5044568;28;20217;-79
2024/02/04 02:56:57;;;;;;;0.70;0.70;;;;;;;;;;5052061;28;20198;-79
2024/02/04 02:59:24;;;;;;;1.63;0.63;;;;;;;;;;5040809;28;20292;-79
2024/02/04 03:01:56;;;;;;;0.50;0.50;;;;;;;;;;5034362;28;20228;-80
2024/02/04 03:04:29;;;;;;;0.60;0.60;;;;;;;;;;5051261;28;20242;-79
2024/02/04 03:06:57;;;;;;;1.53;0.70;;;;;;;;;;5032248;28;20198;-79
2024/02/04 03:09:24;;;;;;;0.53;0.50;;;;;;;;;;5033794;28;20196;-79
2024/02/04 03:11:52;;;;;;;0.50;0.50;;;;;;;;;;5033587;28;20224;-79
2024/02/04 03:14:20;;;;;;;1.23;0.50;;;;;;;;;;5033932;28;20201;-79
2024/02/04 03:16:57;;;;;;;1.87;0.60;;;;;;;;;;5044188;28;20197;-79
2024/02/04 03:19:26;;;;;;;0.83;0.60;;;;;;;;;;5037460;28;20227;-79
2024/02/04 03:21:53;;;;;;;1.17;0.50;;;;;;;;;;5012922;28;20232;-80
2024/02/04 03:24:21;;;;;;;0.50;0.40;;;;;;;;;;5047658;28;20194;-78
2024/02/04 03:26:48;;;;;;;0.20;0.20;;;;;;;;;;5031634;28;20288;-81
2024/02/04 03:29:20;;;;;;;0.30;0.30;;;;;;;;;;5036425;28;20698;-80
2024/02/04 03:31:47;;;;;;;0.20;0.20;;;;;;;;;;5016894;28;20224;-79
2024/02/04 03:34:16;;;;;;;0.30;0.30;;;;;;;;;;5034511;28;20202;-82
2024/02/04 03:36:48;;;;;;;0.30;0.30;;;;;;;;;;5033059;28;20304;-79
2024/02/04 03:39:17;;;;;;;0.50;0.40;;;;;;;;;;5030281;28;20198;-79
2024/02/04 03:41:46;;;;;;;0.40;0.30;;;;;;;;;;5049652;28;20235;-78
2024/02/04 03:44:18;;;;;;;0.60;0.40;;;;;;;;;;5050874;28;20201;-80
2024/02/04 03:46:50;;;;;;;0.37;0.37;;;;;;;;;;5032746;28;20312;-81
2024/02/04 03:49:32;;;;;;;0.50;0.40;;;;;;;;;;5025785;28;20234;-81
2024/02/04 03:52:06;;;;;;;0.30;0.20;;;;;;;;;;5044559;28;20249;-82
2024/02/04 03:54:32;;;;;;;0.40;0.40;;;;;;;;;;5025515;28;20201;-82
2024/02/04 03:57:02;;;;;;;0.20;0.20;;;;;;;;;;5031274;28;20204;-79
2024/02/04 03:59:37;;;;;;;0.30;0.30;;;;;;;;;;5032406;28;20312;-79
2024/02/04 04:02:03;;;;;;;0.23;0.20;;;;;;;;;;5027745;28;20221;-80
2024/02/04 04:04:30;;;;;;;0.20;0.20;;;;;;;;;;5047316;28;20276;-78
2024/02/04 04:07:21;;;;;;;0.30;0.30;;;;;;;;;;5052758;28;20299;-79
2024/02/04 04:09:50;;;;;;;0.23;0.20;;;;;;;;;;5053900;28;20244;-80
2024/02/04 04:12:20;;;;;;;0.20;0.20;;;;;;;;;;5032710;28;20185;-79
2024/02/04 04:14:54;;;;;;;0.30;0.30;;;;;;;;;;5045749;28;20263;-82
2024/02/04 04:17:23;;;;;;;0.20;0.20;;;;;;;;;;5049610;28;20286;-81
2024/02/04 04:19:53;;;;;;;0.30;0.30;;;;;;;;;;5049736;28;20205;-79
2024/02/04 04:22:20;;;;;;;0.30;0.30;;;;;;;;;;5049836;28;20220;-81
2024/02/04 04:24:47;;;;;;;0.30;0.30;;;;;;;;;;5029348;28;20209;-79
2024/02/04 04:27:17;;;;;;;0.20;0.20;;;;;;;;;;5029908;28;20228;-79
2024/02/04 04:29:43;;;;;;;0.30;0.30;;;;;;;;;;5032484;28;20197;-78
2024/02/04 04:32:10;;;;;;;0.30;0.30;;;;;;;;;;5029628;28;20201;-80
2024/02/04 04:34:42;;;;;;;0.20;0.20;;;;;;;;;;5044293;28;20201;-78
2024/02/04 04:37:17;;;;;;;0.30;0.30;;;;;;;;;;5033555;28;20260;-80
2024/02/04 04:39:46;;;;;;;0.20;0.20;;;;;;;;;;5048093;28;20234;-80
2024/02/04 04:42:18;;;;;;;0.40;0.40;;;;;;;;;;5049493;28;20249;-79
2024/02/04 04:44:46;;;;;;;0.30;0.30;;;;;;;;;;5049659;28;20221;-78
2024/02/04 04:47:15;;;;;;;0.50;0.40;;;;;;;;;;5044194;28;20200;-79
2024/02/04 04:49:41;;;;;;;0.30;0.20;;;;;;;;;;5046744;28;20201;-80
2024/02/04 04:52:08;;;;;;;0.30;0.30;;;;;;;;;;5050506;28;20247;-81
2024/02/04 04:54:35;;;;;;;0.20;0.20;;;;;;;;;;5044541;28;20666;-79
2024/02/04 04:57:03;;;;;;;0.30;0.30;;;;;;;;;;5028884;28;20227;-80
2024/02/04 04:59:35;;;;;;;0.20;0.20;;;;;;;;;;5048913;28;20221;-82
2024/02/04 05:02:04;;;;;;;0.20;0.20;;;;;;;;;;5028938;28;20276;-79
2024/02/04 05:04:31;;;;;;;0.23;0.23;;;;;;;;;;5046781;28;20202;-80
2024/02/04 05:07:01;;;;;;;0.20;0.20;;;;;;;;;;5043232;28;20658;-78
2024/02/04 05:09:28;;;;;;;0.30;0.30;;;;;;;;;;5051936;28;20200;-80
2024/02/04 05:11:55;;;;;;;0.30;0.30;;;;;;;;;;5018935;28;20657;-79
2024/02/04 05:14:35;;;;;;;0.37;0.23;;;;;;;;;;5057924;28;20290;-78
2024/02/04 05:17:05;;;;;;;0.40;0.30;;;;;;;;;;5048741;28;20193;-80
2024/02/04 05:19:33;;;;;;;0.30;0.30;;;;;;;;;;5038326;28;20236;-80
2024/02/04 05:22:00;;;;;;;0.40;0.30;;;;;;;;;;5025839;28;20225;-80
2024/02/04 05:24:33;;;;;;;0.40;0.40;;;;;;;;;;5055827;28;20194;-80
2024/02/04 05:27:04;;;;;;;0.30;0.30;;;;;;;;;;5039299;28;20624;-80
2024/02/04 05:29:31;;;;;;;0.40;0.40;;;;;;;;;;5052581;28;20750;-80
2024/02/04 05:31:58;;;;;;;1.00;0.53;;;;;;;;;;5038014;28;20201;-81
2024/02/04 05:34:27;;;;;;;0.30;0.30;;;;;;;;;;5055848;28;20185;-79
2024/02/04 05:36:57;;;;;;;1.50;0.57;;;;;;;;;;5017241;28;20218;-80
2024/02/04 05:39:24;;;;;;;0.43;0.43;;;;;;;;;;5048461;28;20277;-81
2024/02/04 05:41:57;;;;;;;0.60;0.60;;;;;;;;;;5037505;28;20217;-81
2024/02/04 05:44:24;;;;;;;1.23;0.70;;;;;;;;;;5052610;28;20194;-78
2024/02/04 05:46:52;;;;;;;0.40;0.40;;;;;;;;;;5053022;28;20186;-80
2024/02/04 05:49:21;;;;;;;0.70;0.60;;;;;;;;;;5035058;28;20202;-79
2024/02/04 05:51:48;;;;;;;0.70;0.70;;;;;;;;;;5034648;28;20266;-81
2024/02/04 05:54:18;;;;;;;0.60;0.60;;;;;;;;;;5035268;28;20277;-79
2024/02/04 05:56:46;;;;;;;1.33;0.60;;;;;;;;;;5033297;28;20242;-79
2024/02/04 05:59:13;;;;;;;0.70;0.70;;;;;;;;;;5033383;28;20279;-79
2024/02/04 06:01:42;;;;;;;0.70;0.70;;;;;;;;;;5053892;28;20205;-79
2024/02/04 06:04:09;;;;;;;0.93;0.83;;;;;;;;;;5051903;28;20202;-80
2024/02/04 06:06:39;;;;;;;0.80;0.80;;;;;;;;;;5018405;28;20255;-79
2024/02/04 06:09:08;;;;;;;0.73;0.73;;;;;;;;;;5052332;28;20441;-79
2024/02/04 06:11:35;;;;;;;0.83;0.83;;;;;;;;;;5034393;28;20205;-82
2024/02/04 06:14:02;;;;;;;0.90;0.90;;;;;;;;;;5035877;28;20228;-80
2024/02/04 06:16:28;;;;;;;1.10;1.00;;;;;;;;;;5029127;28;20209;-79
2024/02/04 06:18:57;;;;;;;1.10;1.00;;;;;;;;;;5038699;28;20262;-79
2024/02/04 06:21:24;;;;;;;0.90;0.90;;;;;;;;;;5030202;28;20232;-80
2024/02/04 06:23:51;;;;;;;1.20;1.10;;;;;;;;;;5052325;28;20280;-80
2024/02/04 06:26:20;;;;;;;1.20;1.10;;;;;;;;;;5033667;28;20198;-79
2024/02/04 06:28:50;;;;;;;1.40;1.30;;;;;;;;;;5052258;28;20194;-79
2024/02/04 06:31:19;;;;;;;1.13;1.03;;;;;;;;;;5034249;28;20197;-78
2024/02/04 06:33:51;;;;;;;1.00;1.00;;;;;;;;;;5027256;28;20228;-79
2024/02/04 06:36:23;;;;;;;1.13;1.03;;;;;;;;;;5045397;28;20208;-80
2024/02/04 06:38:50;;;;;;;1.07;1.03;;;;;;;;;;5034365;28;20233;-80
2024/02/04 06:41:22;;;;;;;1.00;1.00;;;;;;;;;;5051988;28;20213;-81
2024/02/04 06:43:51;;;;;;;1.10;1.00;;;;;;;;;;5033769;28;20582;-82
2024/02/04 06:46:29;;;;;;;1.00;1.00;;;;;;;;;;5052143;28;20267;-80
2024/02/04 06:49:03;;;;;;;1.03;1.00;;;;;;;;;;5033827;28;20289;-78
2024/02/04 06:51:30;;;;;;;0.83;0.83;;;;;;;;;;5051963;28;20198;-78
2024/02/04 06:53:57;;;;;;;0.70;0.70;;;;;;;;;;5050376;28;20186;-81
2024/02/04 06:56:23;;;;;;;0.80;0.80;;;;;;;;;;5035050;28;20252;-79
2024/02/04 06:58:50;;;;;;;0.90;0.90;;;;;;;;;;5033747;28;20705;-81
2024/02/04 07:01:16;;;;;;;0.90;0.90;;;;;;;;;;5051156;28;20217;-80
2024/02/04 07:03:44;;;;;;;1.10;1.00;;;;;;;;;;5047113;28;20225;-79
2024/02/04 07:06:15;;;;;;;1.30;1.20;;;;;;;;;;5051379;28;20201;-78
2024/02/04 07:08:42;;;;;;;1.00;1.00;;;;;;;;;;5051361;28;20193;-81
2024/02/04 07:11:09;;;;;;;0.80;0.80;;;;;;;;;;5050861;28;20742;-80
2024/02/04 07:13:35;;;;;;;1.00;0.90;;;;;;;;;;5051279;28;20654;-81
2024/02/04 07:16:02;;;;;;;1.37;0.90;;;;;;;;;;5044566;28;20206;-80
2024/02/04 07:18:28;;;;;;;0.83;0.83;;;;;;;;;;5047762;28;20193;-78
2024/02/04 07:20:56;;;;;;;1.23;1.00;;;;;;;;;;5033694;28;20240;-81
2024/02/04 07:23:23;;;;;;;0.77;0.77;;;;;;;;;;5050945;28;20225;-79
2024/02/04 07:25:50;;;;;;;0.83;0.83;;;;;;;;;;5047698;28;20189;-81
2024/02/04 07:28:27;;;;;;;0.80;0.80;;;;;;;;;;5047331;28;20213;-83
2024/02/04 07:30:56;;;;;;;1.17;1.07;;;;;;;;;;5032009;28;20208;-80
2024/02/04 07:33:26;;;;;;;1.30;1.00;;;;;;;;;;5038576;28;20200;-80
2024/02/04 07:36:01;;;;;;;1.00;1.00;;;;;;;;;;5050853;28;20197;-80
2024/02/04 07:38:28;;;;;;;0.80;0.80;;;;;;;;;;5024136;28;20185;-79
2024/02/04 07:40:57;;;;;;;1.20;1.10;;;;;;;;;;5031099;28;20209;-79
2024/02/04 07:43:33;;;;;;;0.90;0.90;;;;;;;;;;5051245;28;20219;-79
2024/02/04 07:46:00;;;;;;;0.90;0.90;;;;;;;;;;5051061;28;20221;-80
2024/02/04 07:48:31;;;;;;;0.93;0.93;;;;;;;;;;5058252;28;20281;-80
2024/02/04 07:51:00;;;;;;;0.80;0.80;;;;;;;;;;5049803;28;20255;-80
2024/02/04 07:53:29;;;;;;;0.70;0.70;;;;;;;;;;5050861;28;20224;-81
2024/02/04 07:56:06;;;;;;;0.80;0.80;;;;;;;;;;5034473;28;20318;-80
2024/02/04 07:58:33;;;;;;;0.70;0.70;;;;;;;;;;5024610;28;20207;-80
2024/02/04 08:01:03;;;;;;;0.60;0.60;;;;;;;;;;5016667;28;20245;-81
2024/02/04 08:03:32;;;;;;;0.63;0.60;;;;;;;;;;5024696;28;20217;-82
2024/02/04 08:05:58;;;;;;;0.60;0.60;;;;;;;;;;5000862;28;20206;-81
2024/02/04 08:08:25;;;;;;;0.70;0.53;;;;;;;;;;5012774;28;20186;-81
2024/02/04 08:10:53;;;;;;;0.60;0.60;;;;;;;;;;5012648;28;20308;-79
2024/02/04 08:13:20;;;;;;;0.50;0.50;;;;;;;;;;5027527;28;20221;-81
2024/02/04 08:15:47;;;;;;;0.80;0.60;;;;;;;;;;5022060;28;20198;-82
2024/02/04 08:18:18;;;;;;;0.50;0.40;;;;;;;;;;5011135;28;20236;-80
2024/02/04 08:20:47;;;;;;;0.40;0.40;;;;;;;;;;5013038;28;20217;-79
2024/02/04 08:23:19;;;;;;;0.50;0.50;;;;;;;;;;5012549;28;20233;-80
2024/02/04 08:25:49;;;;;;;0.50;0.50;;;;;;;;;;5021820;28;20195;-79
2024/02/04 08:28:26;;;;;;;0.80;0.43;;;;;;;;;;5019086;28;20632;-80
2024/02/04 08:31:01;;;;;;;0.50;0.40;;;;;;;;;;5008642;28;20320;-79
2024/02/04 08:33:28;;;;;;;0.40;0.40;;;;;;;;;;5029143;28;20197;-79
2024/02/04 08:35:55;;;;;;;0.30;0.30;;;;;;;;;;5028777;28;20190;-79
2024/02/04 08:38:22;;;;;;;0.40;0.40;;;;;;;;;;5001402;28;20299;-80
2024/02/04 08:40:53;;;;;;;0.40;0.40;;;;;;;;;;5030450;28;20306;-81
2024/02/04 08:43:24;;;;;;;0.40;0.40;;;;;;;;;;5022153;28;20213;-80
2024/02/04 08:46:00;;;;;;;0.27;0.27;;;;;;;;;;5032395;28;20198;-81
2024/02/04 08:48:41;;;;;;;0.30;0.23;;;;;;;;;;5041451;28;20194;-79
2024/02/04 08:51:13;;;;;;;0.20;0.20;;;;;;;;;;5041701;28;20312;-80
2024/02/04 08:53:42;;;;;;;0.30;0.30;;;;;;;;;;5037018;28;20296;-79
2024/02/04 08:56:14;;;;;;;0.73;0.30;;;;;;;;;;5025183;28;20226;-80
2024/02/04 08:58:41;;;;;;;0.20;0.20;;;;;;;;;;5033628;28;20206;-81
2024/02/04 09:01:07;;;;;;;0.20;0.20;;;;;;;;;;5034673;28;20698;-80
2024/02/04 09:04:02;;;;;;;0.30;0.30;;;;;;;;;;5030387;28;20228;-80
2024/02/04 09:06:32;;;;;;;0.23;0.23;;;;;;;;;;5020467;28;20687;-79
2024/02/04 09:09:03;;;;;;;0.30;0.20;;;;;;;;;;5023488;28;20204;-80
2024/02/04 09:11:38;;;;;;;0.20;0.20;;;;;;;;;;5035895;28;20197;-81
2024/02/04 09:14:06;;;;;;;0.20;0.20;;;;;;;;;;5041630;28;20194;-78
2024/02/04 09:16:33;;;;;;;0.20;0.20;;;;;;;;;;5033214;28;20201;-78
2024/02/04 09:19:01;;;;;;;1.13;0.27;;;;;;;;;;5041310;28;20267;-78
2024/02/04 09:21:28;;;;;;;0.13;0.13;;;;;;;;;;5020464;28;20193;-78
2024/02/04 09:24:01;;;;;;;0.20;0.20;;;;;;;;;;5038230;28;20376;-79
2024/02/04 09:26:28;;;;;;;0.20;0.20;;;;;;;;;;5035541;28;20187;-80
2024/02/04 09:28:59;;;;;;;0.20;0.20;;;;;;;;;;5036746;28;20216;-81
2024/02/04 09:31:28;;;;;;;0.30;0.27;;;;;;;;;;5035319;28;20291;-84
2024/02/04 09:33:55;;;;;;;0.30;0.20;;;;;;;;;;5021342;28;20237;-79
2024/02/04 09:36:24;;;;;;;0.10;0.10;;;;;;;;;;5017510;28;20215;-79
2024/02/04 09:38:55;;;;;;;0.30;0.20;;;;;;;;;;5037096;28;20201;-80
2024/02/04 09:41:26;;;;;;;0.10;0.10;;;;;;;;;;5023154;28;20204;-78
2024/02/04 09:43:53;;;;;;;0.30;0.20;;;;;;;;;;5034212;28;20838;-78
2024/02/04 09:46:20;;;;;;;0.13;0.13;;;;;;;;;;5038415;28;20207;-81
2024/02/04 09:48:59;;;;;;;;;;;;;;;;;;;;;
2024/02/04 09:51:29;;;;;;;0.10;0.10;;;;;;;;;;5014659;28;20197;-80
2024/02/04 09:53:58;;;;;;;0.10;0.10;;;;;;;;;;5040178;28;20190;-79
2024/02/04 09:56:28;;;;;;;0.00;0.00;;;;;;;;;;5048113;28;20229;-81
2024/02/04 09:58:57;;;;;;;0.00;0.00;;;;;;;;;;5035672;28;20227;-80
2024/02/04 10:01:24;;;;;;;0.10;0.10;;;;;;;;;;5053696;28;20196;-79
2024/02/04 10:03:58;;;;;;;0.20;0.10;;;;;;;;;;5051448;28;20320;-79
2024/02/04 10:06:27;;;;;;;0.10;0.10;;;;;;;;;;5046184;28;20699;-81
2024/02/04 10:08:54;;;;;;;0.10;0.10;;;;;;;;;;5052089;28;20244;-80
2024/02/04 10:11:22;;;;;;;0.13;0.10;;;;;;;;;;5054882;28;20197;-79
2024/02/04 10:13:52;;;;;;;0.20;0.10;;;;;;;;;;5055921;28;20197;-79
2024/02/04 10:16:22;;;;;;;0.73;0.07;;;;;;;;;;5051221;28;20251;-79
2024/02/04 10:18:49;;;;;;;0.10;0.10;;;;;;;;;;5052642;28;20205;-80
2024/02/04 10:21:17;;;;;;;0.10;0.10;;;;;;;;;;5052360;28;20335;-79
2024/02/04 10:23:43;;;;;;;0.07;0.07;;;;;;;;;;5053171;28;20226;-78
2024/02/04 10:26:11;;;;;;;0.10;0.10;;;;;;;;;;5053125;28;20222;-79
2024/02/04 10:28:41;;;;;;;0.00;0.00;;;;;;;;;;5051848;28;20214;-78
2024/02/04 10:31:13;;;;;;;0.00;0.00;;;;;;;;;;5051872;28;20207;-79
2024/02/04 10:33:43;;;;;;;0.00;0.00;;;;;;;;;;5051657;28;20188;-80
2024/02/04 10:36:14;;;;;;;0.10;0.10;;;;;;;;;;5035522;28;20289;-78
2024/02/04 10:38:49;;;;;;;0.10;0.10;;;;;;;;;;5051845;28;20199;-79
2024/02/04 10:41:21;;;;;;;0.10;0.10;;;;;;;;;;5034341;28;20287;-80
2024/02/04 10:43:48;;;;;;;0.20;0.20;;;;;;;;;;5052827;28;20226;-80
2024/02/04 10:46:20;;;;;;;0.10;0.10;;;;;;;;;;5048943;28;20254;-80
2024/02/04 10:48:51;;;;;;;0.10;0.10;;;;;;;;;;5050243;28;20195;-80
2024/02/04 10:51:21;;;;;;;0.20;0.20;;;;;;;;;;5045777;28;20209;-80
2024/02/04 10:53:51;;;;;;;0.10;0.10;;;;;;;;;;5053928;28;20264;-79
2024/02/04 10:56:19;;;;;;;0.20;0.20;;;;;;;;;;5052485;28;20240;-78
2024/02/04 10:58:50;;;;;;;0.20;0.20;;;;;;;;;;5033176;28;20220;-82
2024/02/04 11:01:21;;;;;;;0.20;0.20;;;;;;;;;;5047221;28;20219;-81
2024/02/04 11:03:54;;;;;;;0.30;0.30;;;;;;;;;;5050579;28;20223;-79
2024/02/04 11:06:22;;;;;;;0.10;0.10;;;;;;;;;;5048167;28;20206;-80
2024/02/04 11:08:58;;;;;;;0.10;0.10;;;;;;;;;;5049775;28;20188;-81
2024/02/04 11:11:33;;;;;;;0.40;0.40;;;;;;;;;;5046555;28;20206;-80
2024/02/04 11:14:02;;;;;;;0.20;0.20;;;;;;;;;;5050013;28;20261;-79
2024/02/04 11:16:44;;;;;;;0.30;0.30;;;;;;;;;;5049605;28;20201;-79
2024/02/04 11:19:20;;;;;;;0.20;0.20;;;;;;;;;;5034441;28;20298;-78
2024/02/04 11:21:49;;;;;;;0.30;0.30;;;;;;;;;;5051764;28;20225;-79
2024/02/04 11:24:43;;;;;;;0.20;0.20;;;;;;;;;;5050732;28;20311;-80
2024/02/04 11:27:11;;;;;;;0.17;0.17;;;;;;;;;;5050213;28;20192;-78
2024/02/04 11:29:39;;;;;;;0.10;0.10;;;;;;;;;;5045922;28;20191;-78
2024/02/04 11:32:12;;;;;;;0.10;0.10;;;;;;;;;;5028707;28;20677;-79
2024/02/04 11:34:42;;;;;;;0.20;0.20;;;;;;;;;;5030063;28;20200;-78
2024/02/04 11:37:37;;;;;;;0.00;0.00;;;;;;;;;;5051246;28;20197;-79
2024/02/04 11:40:05;;;;;;;0.10;0.10;;;;;;;;;;5038600;28;20211;-79
2024/02/04 11:42:32;;;;;;;0.20;0.20;;;;;;;;;;5030304;28;20200;-80
2024/02/04 11:45:10;;;;;;;0.07;0.07;;;;;;;;;;5045020;28;20287;-81
2024/02/04 11:47:45;;;;;;;0.10;0.10;;;;;;;;;;5042620;28;20273;-79
2024/02/04 11:50:29;;;;;;;0.10;0.10;;;;;;;;;;5047670;28;20203;-81
2024/02/04 11:53:11;;;;;;;0.10;0.10;;;;;;;;;;5032194;28;20282;-81
2024/02/04 11:55:42;;;;;;;0.10;0.10;;;;;;;;;;5047982;28;20289;-79
2024/02/04 11:58:12;;;;;;;0.50;0.10;;;;;;;;;;5030555;28;20187;-81
2024/02/04 12:00:45;;;;;;;0.10;0.10;;;;;;;;;;5026542;28;20239;-81
2024/02/04 12:03:14;;;;;;;0.10;0.10;;;;;;;;;;5037249;28;20211;-79
2024/02/04 12:05:42;;;;;;;1.13;0.10;;;;;;;;;;5019074;28;20196;-80
2024/02/04 12:08:11;;;;;;;0.20;0.20;;;;;;;;;;5013351;28;20264;-82
2024/02/04 12:10:41;;;;;;;0.10;0.10;;;;;;;;;;5044218;28;20217;-79
2024/02/04 12:13:10;;;;;;;0.10;0.10;;;;;;;;;;5006306;28;20231;-79
2024/02/04 12:15:42;;;;;;;0.20;0.20;;;;;;;;;;5030595;28;20200;-78
2024/02/04 12:18:09;;;;;;;0.20;0.20;;;;;;;;;;5030818;28;20195;-80
2024/02/04 12:20:38;;;;;;;0.20;0.20;;;;;;;;;;5031874;28;20212;-79
2024/02/04 12:23:06;;;;;;;0.20;0.20;;;;;;;;;;5046052;28;20330;-81
2024/02/04 12:25:34;;;;;;;0.30;0.30;;;;;;;;;;5037273;28;20191;-80
2024/02/04 12:28:02;;;;;;;0.30;0.30;;;;;;;;;;5031597;28;20199;-79
2024/02/04 12:30:32;;;;;;;0.40;0.30;;;;;;;;;;5034221;28;20223;-78
2024/02/04 12:33:00;;;;;;;0.30;0.30;;;;;;;;;;5040018;28;20193;-80
2024/02/04 12:35:30;;;;;;;0.30;0.30;;;;;;;;;;5016769;28;20299;-81
2024/02/04 12:38:09;;;;;;;0.30;0.30;;;;;;;;;;5043389;28;20229;-79
2024/02/04 12:40:38;;;;;;;0.50;0.47;;;;;;;;;;5024770;28;20202;-80
2024/02/04 12:43:07;;;;;;;0.40;0.40;;;;;;;;;;5012430;28;20217;-78
2024/02/04 12:45:36;;;;;;;0.40;0.40;;;;;;;;;;5030269;28;20261;-79
2024/02/04 12:48:02;;;;;;;0.47;0.40;;;;;;;;;;5013507;28;20191;-79
2024/02/04 12:50:35;;;;;;;0.50;0.50;;;;;;;;;;5023757;28;20203;-79
2024/02/04 12:53:11;;;;;;;0.47;0.47;;;;;;;;;;5033655;28;20258;-78
2024/02/04 12:55:45;;;;;;;1.07;0.60;;;;;;;;;;5043287;28;20314;-80
2024/02/04 12:58:18;;;;;;;0.73;0.70;;;;;;;;;;5050466;28;20205;-78
2024/02/04 13:00:59;;;;;;;0.73;0.60;;;;;;;;;;5032525;28;20227;-79
2024/02/04 13:03:28;;;;;;;0.60;0.60;;;;;;;;;;5030495;28;20243;-79
2024/02/04 13:06:01;;;;;;;0.87;0.87;;;;;;;;;;5050249;28;20221;-79
2024/02/04 13:08:28;;;;;;;0.70;0.70;;;;;;;;;;5046986;28;20230;-80
2024/02/04 13:10:59;;;;;;;0.50;0.50;;;;;;;;;;5028391;28;20965;-80
2024/02/04 13:13:28;;;;;;;0.97;0.97;;;;;;;;;;5049663;28;20273;-79
2024/02/04 13:15:57;;;;;;;1.37;0.50;;;;;;;;;;5053287;28;20281;-80
2024/02/04 13:18:25;;;;;;;0.60;0.60;;;;;;;;;;5054353;28;20193;-79
2024/02/04 13:20:53;;;;;;;0.60;0.60;;;;;;;;;;5028201;28;20290;-79
2024/02/04 13:23:21;;;;;;;0.97;0.70;;;;;;;;;;5049116;28;20298;-80
2024/02/04 13:25:50;;;;;;;0.67;0.60;;;;;;;;;;5048484;28;20201;-81
2024/02/04 13:28:20;;;;;;;0.50;0.50;;;;;;;;;;5036476;28;20217;-78
2024/02/04 13:30:46;;;;;;;0.80;0.50;;;;;;;;;;5053398;28;20403;-80
2024/02/04 13:33:14;;;;;;;0.80;0.70;;;;;;;;;;5057946;28;20278;-78
2024/02/04 13:35:40;;;;;;;1.17;0.60;;;;;;;;;;5035423;28;20623;-81
2024/02/04 13:38:09;;;;;;;1.27;0.50;;;;;;;;;;5055485;28;20202;-78
2024/02/04 13:40:39;;;;;;;1.17;0.60;;;;;;;;;;5048304;28;20209;-79
2024/02/04 13:43:06;;;;;;;0.40;0.40;;;;;;;;;;5057899;28;20196;-81
2024/02/04 13:45:33;;;;;;;0.67;0.60;;;;;;;;;;5033392;28;20201;-79
2024/02/04 13:48:00;;;;;;;0.97;0.60;;;;;;;;;;5052537;28;20209;-81
2024/02/04 13:50:33;;;;;;;0.47;0.47;;;;;;;;;;5034603;28;20698;-81
2024/02/04 13:53:03;;;;;;;0.87;0.70;;;;;;;;;;5055747;28;20351;-80
2024/02/04 13:55:30;;;;;;;2.03;0.70;;;;;;;;;;5047297;28;20236;-79
2024/02/04 13:57:57;;;;;;;1.67;0.60;;;;;;;;;;5014131;28;20199;-79
2024/02/04 14:00:24;;;;;;;0.90;0.50;;;;;;;;;;5034764;28;20244;-78
2024/02/04 14:02:53;;;;;;;0.80;0.50;;;;;;;;;;5037999;28;20199;-81
2024/02/04 14:05:25;;;;;;;0.77;0.53;;;;;;;;;;5039758;28;20734;-80
2024/02/04 14:07:52;;;;;;;1.37;0.60;;;;;;;;;;5039287;28;20191;-79
2024/02/04 14:10:23;;;;;;;0.87;0.77;;;;;;;;;;5037474;28;20360;-78
2024/02/04 14:12:51;;;;;;;0.33;0.33;;;;;;;;;;5039927;28;20670;-79
2024/02/04 14:15:20;;;;;;;1.43;0.60;;;;;;;;;;5035585;28;20188;-81
2024/02/04 14:17:49;;;;;;;1.50;0.50;;;;;;;;;;5026288;28;20242;-80
2024/02/04 14:20:17;;;;;;;1.77;0.60;;;;;;;;;;5036271;28;20271;-81
2024/02/04 14:22:43;;;;;;;0.53;0.53;;;;;;;;;;5048335;28;20225;-79
2024/02/04 14:25:10;;;;;;;1.03;0.70;;;;;;;;;;5024118;28;20220;-80
2024/02/04 14:27:39;;;;;;;0.60;0.60;;;;;;;;;;5020070;28;20224;-81
2024/02/04 14:30:07;;;;;;;0.67;0.60;;;;;;;;;;5036941;28;20220;-79
2024/02/04 14:32:35;;;;;;;0.57;0.50;;;;;;;;;;5043752;28;20194;-80
2024/02/04 14:35:04;;;;;;;0.53;0.40;;;;;;;;;;5036853;28;20290;-80
2024/02/04 14:37:32;;;;;;;0.50;0.50;;;;;;;;;;5038106;28;20205;-79
2024/02/04 14:40:03;;;;;;;0.50;0.40;;;;;;;;;;5017524;28;20195;-81
2024/02/04 14:42:30;;;;;;;0.60;0.50;;;;;;;;;;5040186;28;20209;-80
2024/02/04 14:45:01;;;;;;;1.13;0.50;;;;;;;;;;5039398;28;20243;-80
2024/02/04 14:47:28;;;;;;;1.17;0.50;;;;;;;;;;5037779;28;20274;-79
2024/02/04 14:49:55;;;;;;;0.63;0.50;;;;;;;;;;5036333;28;20206;-79
2024/02/04 14:52:28;;;;;;;0.70;0.50;;;;;;;;;;5042528;28;20261;-81
2024/02/04 14:55:00;;;;;;;0.70;0.40;;;;;;;;;;5039535;28;20211;-79
2024/02/04 14:57:27;;;;;;;0.83;0.40;;;;;;;;;;5049932;28;20186;-78
2024/02/04 14:59:54;;;;;;;0.50;0.50;;;;;;;;;;5049768;28;20793;-81